Latest Weather Observations for Mulurulu

IDN60801

Issued at 5:22 am EDT Monday 19 November 2018 (issued every 10 minutes, with the page automatically refreshed every 10 minutes)

About weather observations | Map of weather stations | Latest weather observations for NSW | Other Formats
Station Details ID: 047113 Name: MULURULU AWS Lat: -33.34 Lon: 143.40 Height: 78.0 m
Data from the previous 72 hours. | See also: Recent months at Mulurulu
Date/Time
EDT
Temp
°C
App
Temp
°C
Dew
Point
°C
Rel
Hum
%
Delta-T
°C
Wind Press
QNH
hPa
Press
MSL
hPa
Rain since
9am
mm
Dir  Spd
km/h
Gust
km/h
Spd
kts
Gust
kts
19/05:00am 21.0 - 4.6 34 8.0 - - - - - - - 0.0
19/04:30am 21.0 - 4.1 33 8.2 - - - - - - - 0.0
19/04:00am 21.5 - 4.1 32 8.5 - - - - - - - 0.0
19/03:30am 21.9 - 4.0 31 8.7 - - - - - - - 0.0
19/03:00am 21.6 - 4.2 32 8.5 - - - - - - - 0.0
19/02:30am 21.2 - 3.9 32 8.4 - - - - - - - 0.0
19/02:00am 21.6 - 3.8 31 8.6 - - - - - - - 0.0
19/01:30am 21.7 - 3.4 30 8.8 - - - - - - - 0.0
19/01:00am 22.0 - 3.2 29 9.0 - - - - - - - 0.0
19/12:30am 22.7 - 2.8 27 9.5 - - - - - - - 0.0
19/12:00am 23.3 - 2.7 26 9.9 - - - - - - - 0.0
 
Date/Time
EDT
Temp
°C
App
Temp
°C
Dew
Point
°C
Rel
Hum
%
Delta-T
°C
Wind Press
QNH
hPa
Press
MSL
hPa
Rain since
9am
mm
Dir  Spd
km/h
Gust
km/h
Spd
kts
Gust
kts
18/11:30pm 23.5 - 2.4 25 10.1 - - - - - - - 0.0
18/11:00pm 24.4 - 1.9 23 10.7 - - - - - - - 0.0
18/10:30pm 24.5 - 2.0 23 10.7 - - - - - - - 0.0
18/10:00pm 24.1 - 1.7 23 10.6 - - - - - - - 0.0
18/09:30pm 26.0 - 1.3 20 11.8 - - - - - - - 0.0
18/09:00pm 26.8 - 1.3 19 12.2 - - - - - - - 0.0
18/08:30pm 28.5 - 0.3 16 13.4 - - - - - - - 0.0
18/08:00pm 29.7 - 0.3 15 14.1 - - - - - - - 0.0
18/07:30pm 30.5 - 1.0 15 14.4 - - - - - - - 0.0
18/07:00pm 31.0 - 1.4 15 14.6 - - - - - - - 0.0
18/06:30pm 31.2 - 0.6 14 14.9 - - - - - - - 0.0
18/06:00pm 31.5 - 0.8 14 15.1 - - - - - - - 0.0
18/05:30pm 31.7 - 1.9 15 14.9 - - - - - - - 0.0
18/05:00pm 31.6 - 1.8 15 14.9 - - - - - - - 0.0
18/04:30pm 31.4 - 1.7 15 14.8 - - - - - - - 0.0
18/04:00pm 31.1 - 2.3 16 14.5 - - - - - - - 0.0
18/03:30pm 30.7 - 2.0 16 14.3 - - - - - - - 0.0
18/03:00pm 30.6 - 1.9 16 14.3 - - - - - - - 0.0
18/02:30pm 29.9 - 2.2 17 13.8 - - - - - - - 0.0
18/02:00pm 30.0 - 2.3 17 13.8 - - - - - - - 0.0
18/01:30pm 29.2 - 1.7 17 13.5 - - - - - - - 0.0
18/01:00pm 28.9 - 0.6 16 13.6 - - - - - - - 0.0
18/12:30pm 28.4 - 2.6 19 12.8 - - - - - - - 0.0
18/12:00pm 28.1 - 2.3 19 12.7 - - - - - - - 0.0
18/11:30am 27.7 - 4.1 22 12.0 - - - - - - - 0.0
18/11:00am 26.6 - 5.5 26 10.9 - - - - - - - 0.0
18/10:30am 25.9 - 6.5 29 10.1 - - - - - - - 0.0
18/10:00am 25.2 - 6.4 30 9.8 - - - - - - - 0.0
18/09:30am 24.1 - 6.4 32 9.1 - - - - - - - 0.0
18/09:00am 22.8 - 6.6 35 8.3 - - - - - - - 0.0
18/08:30am 21.1 - 6.6 39 7.4 - - - - - - - 0.0
18/08:00am 19.7 - 7.1 44 6.4 - - - - - - - 0.0
18/07:30am 17.9 - 6.7 48 5.6 - - - - - - - 0.0
18/07:00am 16.7 - 6.5 51 5.0 - - - - - - - 0.0
18/06:30am 15.9 - 6.1 52 4.8 - - - - - - - 0.0
18/06:00am 16.1 - 5.7 50 5.0 - - - - - - - 0.0
18/05:30am 16.4 - 5.4 48 5.3 - - - - - - - 0.0
18/05:00am 16.8 - 5.1 46 5.6 - - - - - - - 0.0
18/04:30am 17.1 - 4.4 43 6.0 - - - - - - - 0.0
18/04:00am 17.1 - 3.1 39 6.5 - - - - - - - 0.0
18/03:30am 17.1 - 0.7 33 7.2 - - - - - - - 0.0
18/03:00am 17.2 - -0.1 31 7.5 - - - - - - - 0.0
18/02:30am 17.6 - -1.1 28 7.9 - - - - - - - 0.0
18/02:00am 17.9 - -2.9 24 8.5 - - - - - - - 0.0
18/01:30am 17.0 - -4.8 22 8.5 - - - - - - - 0.0
18/01:00am 17.5 - -5.0 21 8.8 - - - - - - - 0.0
18/12:30am 16.6 - -4.6 23 8.3 - - - - - - - 0.0
18/12:00am 17.9 - -4.7 21 8.9 - - - - - - - 0.0
 
Date/Time
EDT
Temp
°C
App
Temp
°C
Dew
Point
°C
Rel
Hum
%
Delta-T
°C
Wind Press
QNH
hPa
Press
MSL
hPa
Rain since
9am
mm
Dir  Spd
km/h
Gust
km/h
Spd
kts
Gust
kts
17/11:30pm 18.4 - -4.9 20 9.2 - - - - - - - 0.0
17/11:00pm 19.2 - -5.0 19 9.6 - - - - - - - 0.0
17/10:30pm 19.6 - -5.3 18 9.9 - - - - - - - 0.0
17/10:00pm 20.3 - -5.5 17 10.3 - - - - - - - 0.0
17/09:30pm 21.4 - -5.4 16 10.8 - - - - - - - 0.0
17/09:00pm 22.9 - -6.0 14 11.7 - - - - - - - 0.0
17/08:30pm 24.3 - -6.9 12 12.6 - - - - - - - 0.0
17/08:00pm 25.8 - -8.1 10 13.6 - - - - - - - 0.0
17/07:30pm 26.6 - -8.8 9 14.1 - - - - - - - 0.0
17/07:00pm 26.8 - -10.2 8 14.4 - - - - - - - 0.0
17/06:30pm 27.5 - -8.2 9 14.5 - - - - - - - 0.0
17/06:00pm 27.5 - -8.2 9 14.5 - - - - - - - 0.0
17/05:30pm 28.3 - -7.6 9 14.8 - - - - - - - 0.0
17/05:00pm 28.7 - -4.6 11 14.6 - - - - - - - 0.0
17/04:30pm 28.4 - -3.7 12 14.2 - - - - - - - 0.0
17/04:00pm 28.1 - -2.9 13 13.9 - - - - - - - 0.0
17/03:30pm 27.6 - -0.5 16 13.1 - - - - - - - 0.0
17/03:00pm 27.3 - -0.7 16 13.0 - - - - - - - 0.0
17/02:30pm 28.0 - -0.1 16 13.2 - - - - - - - 0.0
17/02:00pm 26.9 - -0.2 17 12.6 - - - - - - - 0.0
17/01:30pm 27.0 - 0.7 18 12.5 - - - - - - - 0.0
17/01:00pm 25.5 - 0.2 19 11.8 - - - - - - - 0.0
17/12:30pm 24.8 - 1.0 21 11.2 - - - - - - - 0.0
17/12:00pm 25.4 - 0.8 20 11.6 - - - - - - - 0.0
17/11:30am 23.7 - 0.7 22 10.7 - - - - - - - 0.0
17/11:00am 23.2 - 0.3 22 10.5 - - - - - - - 0.0
17/10:30am 21.9 - 0.4 24 9.8 - - - - - - - 0.0
17/10:00am 21.0 - -0.3 24 9.5 - - - - - - - 0.0
17/09:30am 19.7 - -0.9 25 8.9 - - - - - - - 0.0
17/09:00am 18.4 - 0.1 29 8.0 - - - - - - - 0.0
17/08:30am 17.9 - 1.8 34 7.3 - - - - - - - 0.0
17/08:00am 16.7 - 2.0 37 6.6 - - - - - - - 0.0
17/07:30am 16.1 - 3.5 43 5.8 - - - - - - - 0.0
17/07:00am 15.5 - 3.9 46 5.4 - - - - - - - 0.0
17/06:30am 15.4 - 3.9 46 5.3 - - - - - - - 0.0
17/06:00am 15.8 - 3.9 45 5.5 - - - - - - - 0.0
17/05:30am 16.2 - 3.6 43 5.8 - - - - - - - 0.0
17/05:00am 16.4 - 2.8 40 6.2 - - - - - - - 0.0
17/04:30am 16.7 - 2.0 37 6.6 - - - - - - - 0.0
17/04:00am 16.9 - 1.4 35 6.9 - - - - - - - 0.0
17/03:30am 17.0 - 1.0 34 7.1 - - - - - - - 0.0
17/03:00am 17.2 - 1.6 35 7.0 - - - - - - - 0.0
17/02:30am 17.4 - 1.4 34 7.1 - - - - - - - 0.0
17/02:00am 18.3 - -0.5 28 8.1 - - - - - - - 0.0
17/01:30am 15.3 - -0.1 35 6.5 - - - - - - - 0.0
17/01:00am 15.6 - -0.2 34 6.7 - - - - - - - 0.0
17/12:30am 16.2 - -0.1 33 7.0 - - - - - - - 0.0
17/12:00am 16.6 - -0.1 32 7.2 - - - - - - - 0.0
 
Date/Time
EDT
Temp
°C
App
Temp
°C
Dew
Point
°C
Rel
Hum
%
Delta-T
°C
Wind Press
QNH
hPa
Press
MSL
hPa
Rain since
9am
mm
Dir  Spd
km/h
Gust
km/h
Spd
kts
Gust
kts
16/11:30pm 17.4 - -0.3 30 7.6 - - - - - - - 0.0
16/11:00pm 18.6 - -0.7 27 8.3 - - - - - - - 0.0
16/10:30pm 20.2 - -1.0 24 9.2 - - - - - - - 0.0
16/10:00pm 21.9 - -1.4 21 10.2 - - - - - - - 0.0
16/09:30pm 22.9 - -1.9 19 10.9 - - - - - - - 0.0
16/09:00pm 23.3 - -1.6 19 11.0 - - - - - - - 0.0
16/08:30pm 24.9 - -1.8 17 11.9 - - - - - - - 0.0
16/08:00pm 26.3 - -2.4 15 12.8 - - - - - - - 0.0
16/07:30pm 27.4 - -2.4 14 13.4 - - - - - - - 0.0
16/07:00pm 27.9 - -2.0 14 13.6 - - - - - - - 0.0
16/06:30pm 28.3 - -1.7 14 13.8 - - - - - - - 0.0
16/06:00pm 28.6 - -2.5 13 14.1 - - - - - - - 0.0
16/05:30pm 28.4 - -2.6 13 14.0 - - - - - - - 0.0
16/05:00pm 28.2 - -2.8 13 13.9 - - - - - - - 0.0
16/04:30pm 28.6 - -4.7 11 14.5 - - - - - - - 0.0
16/04:00pm 28.1 - -2.9 13 13.9 - - - - - - - 0.0
16/03:30pm 28.4 - -4.9 11 14.5 - - - - - - - 0.0
16/03:00pm 27.8 - -5.3 11 14.2 - - - - - - - 0.0
16/02:30pm 27.3 - -2.5 14 13.4 - - - - - - - 0.0
16/02:00pm 27.1 - -0.9 16 12.9 - - - - - - - 0.0
16/01:30pm 26.6 - -0.4 17 12.5 - - - - - - - 0.0
16/01:00pm 26.4 - 0.2 18 12.3 - - - - - - - 0.0
16/12:30pm 25.5 - 0.9 20 11.6 - - - - - - - 0.0
16/12:00pm 25.7 - 1.8 21 11.5 - - - - - - - 0.0
16/11:30am 24.1 - 2.9 25 10.3 - - - - - - - 0.0
16/11:00am 23.2 - 2.7 26 9.8 - - - - - - - 0.0
16/10:30am 22.0 - 3.2 29 9.0 - - - - - - - 0.0
16/10:00am 20.6 - 3.3 32 8.2 - - - - - - - 0.0
16/09:30am 19.2 - 3.4 35 7.4 - - - - - - - 0.0
16/09:00am 18.2 - 3.7 38 6.8 - - - - - - - 0.0
16/08:30am 16.5 - 3.6 42 6.0 - - - - - - - 0.0
16/08:00am 15.5 - 3.3 44 5.6 - - - - - - - 0.0
16/07:30am 14.6 - 2.5 44 5.4 - - - - - - - 0.0
16/07:00am 13.4 - 2.0 46 5.0 - - - - - - - 0.0
16/06:30am 12.7 - 2.0 48 4.6 - - - - - - - 0.0
16/06:00am 13.2 - 1.5 45 5.0 - - - - - - - 0.0
16/05:30am 13.7 - 1.4 43 5.3 - - - - - - - 0.0

Other Formats:

Comma delimited format used in spreadsheet applications
http://www.bom.gov.au/fwo/IDN60801/IDN60801.94797.axf

JavaScript Object Notation format (JSON) in row-major order
http://www.bom.gov.au/fwo/IDN60801/IDN60801.94797.json